sensor_id;sensor_type;location;lat;lon;timestamp;pressure;altitude;pressure_sealevel;temperature;humidity
23616;BME280;11985;49.404;7.734;2023-05-24T00:01:47;97731.63;;;9.02;100.00
23616;BME280;11985;49.404;7.734;2023-05-24T00:06:49;97727.19;;;9.03;100.00
23616;BME280;11985;49.404;7.734;2023-05-24T00:11:55;97719.56;;;9.08;100.00
23616;BME280;11985;49.404;7.734;2023-05-24T00:16:56;97728.50;;;9.13;100.00
23616;BME280;11985;49.404;7.734;2023-05-24T00:21:58;97711.19;;;9.19;100.00
23616;BME280;11985;49.404;7.734;2023-05-24T00:27:01;97704.66;;;9.15;100.00
23616;BME280;11985;49.404;7.734;2023-05-24T00:32:03;97701.97;;;9.08;100.00
23616;BME280;11985;49.404;7.734;2023-05-24T00:37:04;97701.28;;;8.99;100.00
23616;BME280;11985;49.404;7.734;2023-05-24T00:42:07;97691.25;;;8.88;100.00
23616;BME280;11985;49.404;7.734;2023-05-24T00:47:09;97684.47;;;8.79;100.00
23616;BME280;11985;49.404;7.734;2023-05-24T00:52:11;97684.19;;;8.74;100.00
23616;BME280;11985;49.404;7.734;2023-05-24T00:57:14;97677.06;;;8.68;100.00
23616;BME280;11985;49.404;7.734;2023-05-24T01:02:15;97682.03;;;8.63;100.00
23616;BME280;11985;49.404;7.734;2023-05-24T01:07:22;97677.25;;;8.52;100.00
23616;BME280;11985;49.404;7.734;2023-05-24T01:12:34;97678.72;;;8.39;100.00
23616;BME280;11985;49.404;7.734;2023-05-24T01:17:43;97680.75;;;8.29;100.00
23616;BME280;11985;49.404;7.734;2023-05-24T01:23:16;97693.78;;;8.23;100.00
23616;BME280;11985;49.404;7.734;2023-05-24T01:28:21;97688.81;;;8.13;100.00
23616;BME280;11985;49.404;7.734;2023-05-24T01:33:24;97699.38;;;8.05;100.00
23616;BME280;11985;49.404;7.734;2023-05-24T01:38:26;97693.41;;;7.96;100.00
23616;BME280;11985;49.404;7.734;2023-05-24T01:43:34;97696.91;;;7.88;100.00
23616;BME280;11985;49.404;7.734;2023-05-24T01:48:44;97712.72;;;7.80;100.00
23616;BME280;11985;49.404;7.734;2023-05-24T01:53:51;97717.66;;;7.75;100.00
23616;BME280;11985;49.404;7.734;2023-05-24T01:58:58;97720.00;;;7.70;100.00
23616;BME280;11985;49.404;7.734;2023-05-24T02:04:01;97723.50;;;7.62;100.00
23616;BME280;11985;49.404;7.734;2023-05-24T02:09:03;97716.56;;;7.47;100.00
23616;BME280;11985;49.404;7.734;2023-05-24T02:14:06;97719.63;;;7.27;100.00
23616;BME280;11985;49.404;7.734;2023-05-24T02:19:07;97710.00;;;7.28;100.00
23616;BME280;11985;49.404;7.734;2023-05-24T02:24:09;97720.22;;;7.37;100.00
23616;BME280;11985;49.404;7.734;2023-05-24T02:29:13;97719.69;;;7.50;100.00
23616;BME280;11985;49.404;7.734;2023-05-24T02:34:14;97724.66;;;7.60;100.00
23616;BME280;11985;49.404;7.734;2023-05-24T02:39:16;97715.28;;;7.65;100.00
23616;BME280;11985;49.404;7.734;2023-05-24T02:44:19;97703.13;;;7.73;100.00
23616;BME280;11985;49.404;7.734;2023-05-24T02:49:20;97693.06;;;7.76;100.00
23616;BME280;11985;49.404;7.734;2023-05-24T02:54:22;97697.97;;;7.79;100.00
23616;BME280;11985;49.404;7.734;2023-05-24T02:59:25;97698.25;;;7.84;100.00
23616;BME280;11985;49.404;7.734;2023-05-24T03:04:27;97697.25;;;7.85;100.00
23616;BME280;11985;49.404;7.734;2023-05-24T03:09:28;97694.97;;;7.82;100.00
23616;BME280;11985;49.404;7.734;2023-05-24T03:14:31;97699.59;;;7.80;100.00
23616;BME280;11985;49.404;7.734;2023-05-24T03:19:32;97701.41;;;7.80;100.00
23616;BME280;11985;49.404;7.734;2023-05-24T03:24:34;97711.09;;;7.79;100.00
23616;BME280;11985;49.404;7.734;2023-05-24T03:29:39;97710.44;;;7.77;100.00
23616;BME280;11985;49.404;7.734;2023-05-24T03:34:40;97709.16;;;7.73;100.00
23616;BME280;11985;49.404;7.734;2023-05-24T03:39:42;97713.94;;;7.70;100.00
23616;BME280;11985;49.404;7.734;2023-05-24T03:44:44;97707.41;;;7.65;100.00
23616;BME280;11985;49.404;7.734;2023-05-24T03:49:46;97715.47;;;7.64;100.00
23616;BME280;11985;49.404;7.734;2023-05-24T03:54:48;97716.03;;;7.74;100.00
23616;BME280;11985;49.404;7.734;2023-05-24T03:59:51;97703.88;;;7.96;100.00
23616;BME280;11985;49.404;7.734;2023-05-24T04:04:52;97725.34;;;8.14;100.00
23616;BME280;11985;49.404;7.734;2023-05-24T04:09:54;97715.94;;;8.20;100.00
23616;BME280;11985;49.404;7.734;2023-05-24T04:14:58;97729.59;;;8.15;100.00
23616;BME280;11985;49.404;7.734;2023-05-24T04:20:00;97729.88;;;8.06;100.00
23616;BME280;11985;49.404;7.734;2023-05-24T04:25:01;97725.69;;;7.97;100.00
23616;BME280;11985;49.404;7.734;2023-05-24T04:30:06;97727.22;;;7.91;100.00
23616;BME280;11985;49.404;7.734;2023-05-24T04:35:08;97727.56;;;7.88;100.00
23616;BME280;11985;49.404;7.734;2023-05-24T04:40:11;97723.47;;;7.85;100.00
23616;BME280;11985;49.404;7.734;2023-05-24T04:45:14;97717.44;;;7.85;100.00
23616;BME280;11985;49.404;7.734;2023-05-24T04:50:15;97718.16;;;7.93;100.00
23616;BME280;11985;49.404;7.734;2023-05-24T04:55:17;97719.91;;;8.16;100.00
23616;BME280;11985;49.404;7.734;2023-05-24T05:00:20;97730.50;;;8.45;100.00
23616;BME280;11985;49.404;7.734;2023-05-24T05:05:22;97724.94;;;8.70;100.00
23616;BME280;11985;49.404;7.734;2023-05-24T05:10:23;97728.38;;;8.85;100.00
23616;BME280;11985;49.404;7.734;2023-05-24T05:15:26;97734.78;;;8.97;100.00
23616;BME280;11985;49.404;7.734;2023-05-24T05:20:28;97732.16;;;8.97;100.00
23616;BME280;11985;49.404;7.734;2023-05-24T05:25:30;97737.50;;;9.04;100.00
23616;BME280;11985;49.404;7.734;2023-05-24T05:30:33;97749.88;;;9.10;100.00
23616;BME280;11985;49.404;7.734;2023-05-24T05:35:34;97736.44;;;9.35;100.00
23616;BME280;11985;49.404;7.734;2023-05-24T05:40:36;97732.63;;;9.59;98.76
23616;BME280;11985;49.404;7.734;2023-05-24T05:45:39;97732.75;;;9.72;96.83
23616;BME280;11985;49.404;7.734;2023-05-24T05:50:40;97743.28;;;9.72;94.83
23616;BME280;11985;49.404;7.734;2023-05-24T05:55:42;97752.28;;;9.84;93.86
23616;BME280;11985;49.404;7.734;2023-05-24T06:00:45;97754.38;;;9.89;92.49
23616;BME280;11985;49.404;7.734;2023-05-24T06:05:46;97753.72;;;9.65;91.73
23616;BME280;11985;49.404;7.734;2023-05-24T06:10:48;97749.59;;;9.77;92.63
23616;BME280;11985;49.404;7.734;2023-05-24T06:15:51;97754.25;;;10.25;91.49
23616;BME280;11985;49.404;7.734;2023-05-24T06:20:52;97753.63;;;10.51;89.15
23616;BME280;11985;49.404;7.734;2023-05-24T06:25:54;97756.84;;;10.46;88.20
23616;BME280;11985;49.404;7.734;2023-05-24T06:30:56;97749.72;;;10.75;86.81
23616;BME280;11985;49.404;7.734;2023-05-24T06:35:58;97755.81;;;10.82;86.00
23616;BME280;11985;49.404;7.734;2023-05-24T06:40:59;97763.06;;;11.08;84.41
23616;BME280;11985;49.404;7.734;2023-05-24T06:46:02;97760.84;;;11.12;82.50
23616;BME280;11985;49.404;7.734;2023-05-24T06:51:04;97759.22;;;11.10;82.37
23616;BME280;11985;49.404;7.734;2023-05-24T06:56:06;97755.47;;;11.46;81.22
23616;BME280;11985;49.404;7.734;2023-05-24T07:01:10;97767.69;;;11.60;80.47
23616;BME280;11985;49.404;7.734;2023-05-24T07:06:12;97771.16;;;11.81;78.98
23616;BME280;11985;49.404;7.734;2023-05-24T07:11:14;97782.00;;;12.26;76.57
23616;BME280;11985;49.404;7.734;2023-05-24T07:16:17;97781.72;;;11.61;75.45
23616;BME280;11985;49.404;7.734;2023-05-24T07:21:18;97796.28;;;11.50;75.66
23616;BME280;11985;49.404;7.734;2023-05-24T07:26:20;97793.06;;;11.07;75.20
23616;BME280;11985;49.404;7.734;2023-05-24T07:31:24;97794.44;;;11.44;75.79
23616;BME280;11985;49.404;7.734;2023-05-24T07:36:26;97802.78;;;11.54;73.58
23616;BME280;11985;49.404;7.734;2023-05-24T07:41:28;97804.88;;;11.18;73.10
23616;BME280;11985;49.404;7.734;2023-05-24T07:46:33;97803.22;;;11.64;73.46
23616;BME280;11985;49.404;7.734;2023-05-24T07:51:35;97800.88;;;12.09;72.36
23616;BME280;11985;49.404;7.734;2023-05-24T07:56:37;97784.00;;;12.63;71.64
23616;BME280;11985;49.404;7.734;2023-05-24T08:01:40;97790.25;;;12.89;68.92
23616;BME280;11985;49.404;7.734;2023-05-24T08:06:41;97793.56;;;12.58;68.42
23616;BME280;11985;49.404;7.734;2023-05-24T08:11:43;97790.31;;;12.62;68.15
23616;BME280;11985;49.404;7.734;2023-05-24T08:16:46;97795.84;;;13.26;66.86
23616;BME280;11985;49.404;7.734;2023-05-24T08:21:47;97794.41;;;13.30;66.14
23616;BME280;11985;49.404;7.734;2023-05-24T08:26:49;97794.41;;;13.30;64.86
23616;BME280;11985;49.404;7.734;2023-05-24T08:31:54;97784.03;;;13.35;64.35
23616;BME280;11985;49.404;7.734;2023-05-24T08:36:55;97783.09;;;13.54;64.38
23616;BME280;11985;49.404;7.734;2023-05-24T08:41:58;97779.44;;;13.87;63.68
23616;BME280;11985;49.404;7.734;2023-05-24T08:47:01;97797.34;;;14.23;62.49
23616;BME280;11985;49.404;7.734;2023-05-24T08:52:04;97794.00;;;14.34;62.06
23616;BME280;11985;49.404;7.734;2023-05-24T08:57:08;97785.69;;;14.56;60.44
23616;BME280;11985;49.404;7.734;2023-05-24T09:02:13;97804.00;;;14.57;59.58
23616;BME280;11985;49.404;7.734;2023-05-24T09:07:17;97813.69;;;14.70;58.09
23616;BME280;11985;49.404;7.734;2023-05-24T09:12:19;97810.63;;;14.91;56.56
23616;BME280;11985;49.404;7.734;2023-05-24T09:17:23;97808.00;;;14.41;57.48
23616;BME280;11985;49.404;7.734;2023-05-24T09:22:27;97808.56;;;14.50;56.42
23616;BME280;11985;49.404;7.734;2023-05-24T09:27:30;97795.50;;;14.23;55.44
23616;BME280;11985;49.404;7.734;2023-05-24T09:32:35;97798.31;;;14.78;55.77
23616;BME280;11985;49.404;7.734;2023-05-24T09:37:36;97791.00;;;14.92;54.44
23616;BME280;11985;49.404;7.734;2023-05-24T09:42:39;97796.03;;;15.00;54.13
23616;BME280;11985;49.404;7.734;2023-05-24T09:47:42;97789.47;;;15.03;53.91
23616;BME280;11985;49.404;7.734;2023-05-24T09:52:44;97776.66;;;15.18;54.08
23616;BME280;11985;49.404;7.734;2023-05-24T09:57:50;97766.75;;;15.25;53.46
23616;BME280;11985;49.404;7.734;2023-05-24T10:03:01;97777.75;;;15.77;51.74
23616;BME280;11985;49.404;7.734;2023-05-24T10:08:03;97777.41;;;15.55;51.05
23616;BME280;11985;49.404;7.734;2023-05-24T10:13:05;97775.09;;;15.59;50.78
23616;BME280;11985;49.404;7.734;2023-05-24T10:18:08;97774.81;;;15.49;50.10
23616;BME280;11985;49.404;7.734;2023-05-24T10:23:13;97767.84;;;15.84;50.00
23616;BME280;11985;49.404;7.734;2023-05-24T10:28:16;97763.41;;;16.20;49.16
23616;BME280;11985;49.404;7.734;2023-05-24T10:33:20;97767.00;;;16.37;48.01
23616;BME280;11985;49.404;7.734;2023-05-24T10:38:23;97765.75;;;16.63;47.84
23616;BME280;11985;49.404;7.734;2023-05-24T10:43:25;97762.03;;;16.53;47.07
23616;BME280;11985;49.404;7.734;2023-05-24T10:48:40;97761.91;;;16.48;46.63
23616;BME280;11985;49.404;7.734;2023-05-24T10:53:42;97755.34;;;16.39;46.26
23616;BME280;11985;49.404;7.734;2023-05-24T10:58:57;97758.06;;;16.08;46.76
23616;BME280;11985;49.404;7.734;2023-05-24T11:04:11;97759.03;;;15.72;46.69
23616;BME280;11985;49.404;7.734;2023-05-24T11:09:16;97761.50;;;15.97;47.33
23616;BME280;11985;49.404;7.734;2023-05-24T11:14:22;97747.13;;;16.28;46.83
23616;BME280;11985;49.404;7.734;2023-05-24T11:19:31;97749.78;;;16.75;46.21
23616;BME280;11985;49.404;7.734;2023-05-24T11:24:34;97744.47;;;16.52;45.33
23616;BME280;11985;49.404;7.734;2023-05-24T11:29:39;97747.69;;;16.54;45.12
23616;BME280;11985;49.404;7.734;2023-05-24T11:34:42;97742.97;;;16.56;45.19
23616;BME280;11985;49.404;7.734;2023-05-24T11:39:49;97741.56;;;16.18;46.25
23616;BME280;11985;49.404;7.734;2023-05-24T11:44:52;97734.53;;;16.35;45.25
23616;BME280;11985;49.404;7.734;2023-05-24T11:49:55;97733.59;;;16.30;44.79
23616;BME280;11985;49.404;7.734;2023-05-24T11:54:56;97737.66;;;16.32;44.13
23616;BME280;11985;49.404;7.734;2023-05-24T11:59:58;97739.28;;;16.33;43.82
23616;BME280;11985;49.404;7.734;2023-05-24T12:05:07;97729.56;;;16.51;44.77
23616;BME280;11985;49.404;7.734;2023-05-24T12:10:11;97736.13;;;16.13;44.60
23616;BME280;11985;49.404;7.734;2023-05-24T12:15:13;97717.66;;;16.30;45.47
23616;BME280;11985;49.404;7.734;2023-05-24T12:20:16;97722.38;;;16.63;44.43
23616;BME280;11985;49.404;7.734;2023-05-24T12:25:21;97725.28;;;16.73;43.93
23616;BME280;11985;49.404;7.734;2023-05-24T12:30:23;97725.69;;;17.05;43.58
23616;BME280;11985;49.404;7.734;2023-05-24T12:35:26;97719.81;;;17.32;42.67
23616;BME280;11985;49.404;7.734;2023-05-24T12:40:31;97714.63;;;17.25;42.08
23616;BME280;11985;49.404;7.734;2023-05-24T12:45:33;97719.66;;;17.10;40.39
23616;BME280;11985;49.404;7.734;2023-05-24T12:50:37;97720.53;;;16.75;39.59
23616;BME280;11985;49.404;7.734;2023-05-24T12:55:39;97708.28;;;17.14;39.54
23616;BME280;11985;49.404;7.734;2023-05-24T13:00:41;97703.91;;;17.08;39.07
23616;BME280;11985;49.404;7.734;2023-05-24T13:05:45;97697.22;;;17.34;39.50
23616;BME280;11985;49.404;7.734;2023-05-24T13:10:46;97689.94;;;17.58;40.14
23616;BME280;11985;49.404;7.734;2023-05-24T13:15:51;97693.41;;;17.59;39.51
23616;BME280;11985;49.404;7.734;2023-05-24T13:20:54;97687.47;;;16.59;40.09
23616;BME280;11985;49.404;7.734;2023-05-24T13:25:56;97683.06;;;16.65;40.81
23616;BME280;11985;49.404;7.734;2023-05-24T13:30:58;97697.22;;;17.34;41.87
23616;BME280;11985;49.404;7.734;2023-05-24T13:36:01;97687.84;;;17.32;42.35
23616;BME280;11985;49.404;7.734;2023-05-24T13:41:02;97680.00;;;17.54;41.93
23616;BME280;11985;49.404;7.734;2023-05-24T13:46:04;97685.25;;;17.77;41.28
23616;BME280;11985;49.404;7.734;2023-05-24T13:51:07;97682.66;;;17.82;40.68
23616;BME280;11985;49.404;7.734;2023-05-24T13:56:09;97681.31;;;18.35;39.96
23616;BME280;11985;49.404;7.734;2023-05-24T14:01:10;97684.34;;;18.22;38.87
23616;BME280;11985;49.404;7.734;2023-05-24T14:06:13;97681.53;;;17.50;38.99
23616;BME280;11985;49.404;7.734;2023-05-24T14:11:15;97686.00;;;17.04;39.58
23616;BME280;11985;49.404;7.734;2023-05-24T14:16:17;97692.00;;;17.39;39.98
23616;BME280;11985;49.404;7.734;2023-05-24T14:21:20;97695.34;;;17.18;40.08
23616;BME280;11985;49.404;7.734;2023-05-24T14:26:22;97694.63;;;16.82;40.89
23616;BME280;11985;49.404;7.734;2023-05-24T14:31:24;97710.97;;;16.39;41.85
23616;BME280;11985;49.404;7.734;2023-05-24T14:36:27;97718.19;;;15.97;43.58
23616;BME280;11985;49.404;7.734;2023-05-24T14:41:28;97712.75;;;15.50;44.75
23616;BME280;11985;49.404;7.734;2023-05-24T14:46:30;97725.34;;;15.24;45.66
23616;BME280;11985;49.404;7.734;2023-05-24T14:51:33;97726.75;;;15.09;47.24
23616;BME280;11985;49.404;7.734;2023-05-24T14:56:35;97727.56;;;15.09;47.86
23616;BME280;11985;49.404;7.734;2023-05-24T15:01:38;97731.13;;;15.21;48.00
23616;BME280;11985;49.404;7.734;2023-05-24T15:06:42;97725.91;;;15.26;47.98
23616;BME280;11985;49.404;7.734;2023-05-24T15:11:45;97726.25;;;14.82;49.04
23616;BME280;11985;49.404;7.734;2023-05-24T15:16:47;97728.03;;;15.06;49.36
23616;BME280;11985;49.404;7.734;2023-05-24T15:21:50;97728.41;;;15.40;49.83
23616;BME280;11985;49.404;7.734;2023-05-24T15:26:51;97737.28;;;15.15;48.94
23616;BME280;11985;49.404;7.734;2023-05-24T15:31:53;97729.66;;;14.70;49.37
23616;BME280;11985;49.404;7.734;2023-05-24T15:36:59;97721.25;;;14.55;49.91
23616;BME280;11985;49.404;7.734;2023-05-24T15:42:00;97729.06;;;14.50;50.54
23616;BME280;11985;49.404;7.734;2023-05-24T15:47:03;97718.91;;;14.84;50.93
23616;BME280;11985;49.404;7.734;2023-05-24T15:52:06;97724.66;;;14.81;50.43
23616;BME280;11985;49.404;7.734;2023-05-24T15:57:08;97716.63;;;14.50;50.57
23616;BME280;11985;49.404;7.734;2023-05-24T16:02:10;97724.88;;;14.36;50.92
23616;BME280;11985;49.404;7.734;2023-05-24T16:07:13;97728.41;;;14.30;51.51
23616;BME280;11985;49.404;7.734;2023-05-24T16:12:14;97729.22;;;14.05;51.62
23616;BME280;11985;49.404;7.734;2023-05-24T16:17:16;97720.56;;;14.16;52.45
23616;BME280;11985;49.404;7.734;2023-05-24T16:22:20;97723.09;;;14.30;52.11
23616;BME280;11985;49.404;7.734;2023-05-24T16:27:21;97717.38;;;14.33;52.47
23616;BME280;11985;49.404;7.734;2023-05-24T16:32:23;97707.50;;;14.40;52.00
23616;BME280;11985;49.404;7.734;2023-05-24T16:37:26;97702.28;;;14.33;51.69
23616;BME280;11985;49.404;7.734;2023-05-24T16:42:27;97699.09;;;14.49;51.96
23616;BME280;11985;49.404;7.734;2023-05-24T16:47:29;97695.47;;;14.81;51.37
23616;BME280;11985;49.404;7.734;2023-05-24T16:52:32;97695.22;;;15.19;51.26
23616;BME280;11985;49.404;7.734;2023-05-24T16:57:34;97692.16;;;14.85;50.22
23616;BME280;11985;49.404;7.734;2023-05-24T17:02:36;97703.19;;;14.20;50.83
23616;BME280;11985;49.404;7.734;2023-05-24T17:07:39;97698.13;;;13.69;51.52
23616;BME280;11985;49.404;7.734;2023-05-24T17:12:41;97703.50;;;13.17;52.06
23616;BME280;11985;49.404;7.734;2023-05-24T17:17:43;97704.56;;;13.03;52.91
23616;BME280;11985;49.404;7.734;2023-05-24T17:22:46;97698.69;;;13.01;52.82
23616;BME280;11985;49.404;7.734;2023-05-24T17:27:48;97709.38;;;13.19;53.48
23616;BME280;11985;49.404;7.734;2023-05-24T17:32:50;97703.81;;;13.41;53.59
23616;BME280;11985;49.404;7.734;2023-05-24T17:37:53;97710.97;;;13.65;53.54
23616;BME280;11985;49.404;7.734;2023-05-24T17:42:55;97720.38;;;13.61;53.90
23616;BME280;11985;49.404;7.734;2023-05-24T17:47:56;97717.97;;;13.53;54.14
23616;BME280;11985;49.404;7.734;2023-05-24T17:53:00;97727.44;;;13.36;54.80
23616;BME280;11985;49.404;7.734;2023-05-24T17:58:01;97718.34;;;13.18;54.52
23616;BME280;11985;49.404;7.734;2023-05-24T18:03:03;97729.03;;;12.92;54.58
23616;BME280;11985;49.404;7.734;2023-05-24T18:08:06;97744.31;;;12.77;54.87
23616;BME280;11985;49.404;7.734;2023-05-24T18:13:08;97750.06;;;12.54;55.04
23616;BME280;11985;49.404;7.734;2023-05-24T18:18:10;97738.28;;;12.43;55.51
23616;BME280;11985;49.404;7.734;2023-05-24T18:23:13;97740.75;;;12.38;55.86
23616;BME280;11985;49.404;7.734;2023-05-24T18:28:14;97736.50;;;12.30;55.92
23616;BME280;11985;49.404;7.734;2023-05-24T18:33:16;97733.06;;;12.17;56.01
23616;BME280;11985;49.404;7.734;2023-05-24T18:38:19;97742.19;;;12.14;56.46
23616;BME280;11985;49.404;7.734;2023-05-24T18:43:20;97738.34;;;12.17;56.36
23616;BME280;11985;49.404;7.734;2023-05-24T18:48:22;97727.56;;;12.18;56.25
23616;BME280;11985;49.404;7.734;2023-05-24T18:53:25;97735.88;;;12.08;56.39
23616;BME280;11985;49.404;7.734;2023-05-24T18:58:26;97739.13;;;11.97;56.60
23616;BME280;11985;49.404;7.734;2023-05-24T19:03:28;97741.13;;;11.75;57.09
23616;BME280;11985;49.404;7.734;2023-05-24T19:08:31;97742.28;;;11.46;57.86
23616;BME280;11985;49.404;7.734;2023-05-24T19:13:32;97740.81;;;11.24;58.74
23616;BME280;11985;49.404;7.734;2023-05-24T19:18:34;97745.81;;;11.05;59.91
23616;BME280;11985;49.404;7.734;2023-05-24T19:23:37;97749.41;;;10.91;60.73
23616;BME280;11985;49.404;7.734;2023-05-24T19:28:39;97756.00;;;10.74;62.15
23616;BME280;11985;49.404;7.734;2023-05-24T19:33:41;97746.38;;;10.60;63.23
23616;BME280;11985;49.404;7.734;2023-05-24T19:38:46;97752.19;;;10.48;64.13
23616;BME280;11985;49.404;7.734;2023-05-24T19:43:47;97753.50;;;10.31;65.63
23616;BME280;11985;49.404;7.734;2023-05-24T19:48:49;97760.47;;;10.17;66.82
23616;BME280;11985;49.404;7.734;2023-05-24T19:53:52;97764.84;;;10.10;67.93
23616;BME280;11985;49.404;7.734;2023-05-24T19:58:53;97776.06;;;10.19;68.96
23616;BME280;11985;49.404;7.734;2023-05-24T20:03:55;97781.44;;;10.32;69.24
23616;BME280;11985;49.404;7.734;2023-05-24T20:08:58;97790.00;;;10.34;69.40
23616;BME280;11985;49.404;7.734;2023-05-24T20:14:00;97790.34;;;10.31;70.01
23616;BME280;11985;49.404;7.734;2023-05-24T20:19:01;97783.84;;;10.27;70.56
23616;BME280;11985;49.404;7.734;2023-05-24T20:24:05;97785.72;;;10.12;71.57
23616;BME280;11985;49.404;7.734;2023-05-24T20:29:06;97794.00;;;10.09;71.90
23616;BME280;11985;49.404;7.734;2023-05-24T20:34:08;97785.44;;;10.00;72.61
23616;BME280;11985;49.404;7.734;2023-05-24T20:39:11;97796.50;;;9.95;73.27
23616;BME280;11985;49.404;7.734;2023-05-24T20:44:12;97797.28;;;9.89;74.05
23616;BME280;11985;49.404;7.734;2023-05-24T20:49:14;97783.72;;;9.92;74.31
23616;BME280;11985;49.404;7.734;2023-05-24T20:54:17;97788.44;;;9.97;74.80
23616;BME280;11985;49.404;7.734;2023-05-24T20:59:18;97790.50;;;10.01;75.17
23616;BME280;11985;49.404;7.734;2023-05-24T21:04:20;97790.50;;;10.01;75.24
23616;BME280;11985;49.404;7.734;2023-05-24T21:09:23;97789.28;;;10.04;75.64
23616;BME280;11985;49.404;7.734;2023-05-24T21:14:25;97788.13;;;10.07;75.55
23616;BME280;11985;49.404;7.734;2023-05-24T21:19:26;97786.25;;;10.00;75.36
23616;BME280;11985;49.404;7.734;2023-05-24T21:24:29;97788.63;;;9.95;76.11
23616;BME280;11985;49.404;7.734;2023-05-24T21:29:31;97778.22;;;9.87;76.53
23616;BME280;11985;49.404;7.734;2023-05-24T21:34:32;97785.50;;;9.85;77.20
23616;BME280;11985;49.404;7.734;2023-05-24T21:39:36;97791.13;;;9.82;78.02
23616;BME280;11985;49.404;7.734;2023-05-24T21:44:37;97787.50;;;9.83;78.55
23616;BME280;11985;49.404;7.734;2023-05-24T21:49:39;97790.84;;;9.77;78.55
23616;BME280;11985;49.404;7.734;2023-05-24T21:54:42;97789.72;;;9.65;78.81
23616;BME280;11985;49.404;7.734;2023-05-24T21:59:43;97800.13;;;9.51;78.81
23616;BME280;11985;49.404;7.734;2023-05-24T22:04:45;97807.22;;;9.36;79.27
23616;BME280;11985;49.404;7.734;2023-05-24T22:09:48;97811.94;;;9.26;79.69
23616;BME280;11985;49.404;7.734;2023-05-24T22:14:49;97801.75;;;9.16;80.04
23616;BME280;11985;49.404;7.734;2023-05-24T22:19:51;97798.03;;;9.11;80.54
23616;BME280;11985;49.404;7.734;2023-05-24T22:24:54;97794.22;;;8.98;81.23
23616;BME280;11985;49.404;7.734;2023-05-24T22:29:56;97792.03;;;8.87;81.70
23616;BME280;11985;49.404;7.734;2023-05-24T22:34:59;97804.00;;;8.75;82.39
23616;BME280;11985;49.404;7.734;2023-05-24T22:40:02;97803.44;;;8.65;83.43
23616;BME280;11985;49.404;7.734;2023-05-24T22:45:04;97813.41;;;8.55;83.74
23616;BME280;11985;49.404;7.734;2023-05-24T22:50:07;97790.69;;;8.47;84.65
23616;BME280;11985;49.404;7.734;2023-05-24T22:55:10;97802.09;;;8.39;85.25
23616;BME280;11985;49.404;7.734;2023-05-24T23:00:12;97802.91;;;8.32;86.15
23616;BME280;11985;49.404;7.734;2023-05-24T23:05:14;97800.81;;;8.27;86.89
23616;BME280;11985;49.404;7.734;2023-05-24T23:10:17;97810.06;;;8.23;87.53
23616;BME280;11985;49.404;7.734;2023-05-24T23:15:19;97799.81;;;8.13;88.49
23616;BME280;11985;49.404;7.734;2023-05-24T23:20:21;97801.00;;;8.11;89.06
23616;BME280;11985;49.404;7.734;2023-05-24T23:25:24;97808.88;;;8.11;89.69
23616;BME280;11985;49.404;7.734;2023-05-24T23:30:26;97804.16;;;8.06;90.23
23616;BME280;11985;49.404;7.734;2023-05-24T23:35:27;97802.84;;;8.02;90.72
23616;BME280;11985;49.404;7.734;2023-05-24T23:40:30;97803.66;;;8.03;91.47
23616;BME280;11985;49.404;7.734;2023-05-24T23:45:32;97804.38;;;7.97;92.10
23616;BME280;11985;49.404;7.734;2023-05-24T23:50:33;97801.81;;;7.88;92.60
23616;BME280;11985;49.404;7.734;2023-05-24T23:55:36;97817.41;;;7.82;93.47
